Aeroporto :
LOGIN :

Iscrizione | Disclaimer

   EN    FR    IT 

 










Sommario :    VFR   VFR Marginale   IFR   IFR Intensivo   IFR Molto Intensivo
Visibilità : 
Base nubi : 
>= 8 km
>= 3000ft
5 / 8 km
1000 / 3000 ft
1500m / 5 km
500 / 1000 ft
800 / 1500m
200 / 500 ft
< 800m
< 200 ft
Simboli :   Temporali  Nebbia  Neve Forte  Precipitazioni Forti  Vento > 20 kt
SIGMETs :   Varie  Temporali  Ghiacco  Turbolenza  Onda orograficha  Ceneri Vulcaniche






- Altitudine del aeroporto : 302 ft
- Codice IATA : CGN


EDDK - Cologne Bonn

ULTIMO METAR :
  • 231850Z AUTO 08008KT 9999 SHRA FEW031 FEW///CB 14/13 Q1016 BECMG NSW

METARs OBSOLETI :
  • 231820Z AUTO 02007KT 350V070 9999 SHRA FEW022 FEW///CB 15/13 Q1016 BECMG NSW
  • 231750Z AUTO 31010KT 7000 SHRA FEW022 FEW///CB 15/12 Q1016 BECMG NSW
  • 231720Z AUTO 28006KT 250V310 9999 3600 +SHRA FEW025 SCT///CB 18/12 Q1015 BECMG NSW
  • 231650Z AUTO 05003KT 9999 -SHRA FEW///TCU 20/10 Q1015 NOSIG
  • 231620Z AUTO VRB02KT CAVOK 21/10 Q1015 NOSIG
  • 231550Z AUTO 35005KT 320V030 CAVOK 20/11 Q1015 NOSIG
  • 231520Z AUTO 36004KT 320V020 CAVOK 21/09 Q1015 NOSIG
  • 231450Z AUTO 23005KT 190V330 CAVOK 22/08 Q1015 NOSIG

TAF AMD TAF EDDK
Valido dal 23 a 18 ore il 25 a 00 ore UTC


231833Z 2318/2424 VRB03KT CAVOK
TEMPO 2318/2321 SHRA BKN030CB
TEMPO 2406/2413 4000 RA BR BKN008
BECMG 2409/2412 35005KT
PROB30
TEMPO 2410/2421 16015G25KT 2000 +TSRA BKN010CB
TEMPO 2413/2422 SHRA BKN020CB
BECMG 2418/2421 VRB03KT



MetMap, La meteo Aeronautica in un colpo d'occhio ! - Copyright ORBIFLY Dicembre 2007 - Disclaimer

ORBIFLY MET'MAP TEAM :

Programmazione e sviluppo : Alexandra Zaïnal
Concezione : Baudouin d'Aumeries
Supporto tecnico e logistico : Manuel Goepfert
Aiuto : Marc-Olivier Méhu
Aiuto per la traduzione : Arnaldo La Scala




FONTI E CREDITI :

   NOAA